Terminal Aerodrome Forecast
Issued by NWS

Home | Current Version | Previous Version | Text Only | Print | Product List | Glossary On
Versions: 1 2 3 4 5 6 7 8 9 10 11 12 13 14 15 16 17 18 19 20 21 22 23 24 25 26 27 28 29 30 31 32 33 34 35 36 37 38 39
170
FTUS46 KLOX 252340
TAFSBA
TAF
KSBA 252340Z 2600/2624 24009KT P6SM SKC
     FM260400 VRB03KT P6SM BKN007
     FM261100 VRB03KT 3SM BR OVC003
     FM261500 VRB03KT 5SM BR OVC008
     FM261730 17005KT 5SM BR BKN011
     FM261900 16006KT P6SM SCT250
     FM262100 21007KT P6SM SCT250=

USA.gov is the U.S. government's official web portal to all federal, state and local government web resources and services.